Time;durP1;ratioP1;P1;durP2;ratioP2;P2;SDS_P1;SDS_P2;PMS_P1;PMS_P2;Temp;Humidity;BMP_temperature;BMP_pressure;BME280_temperature;BME280_humidity;BME280_pressure;Samples;Min_cycle;Max_cycle;Signal;HPM_P1;HPM_P2
2024/01/22 00:00:23;;;;;;;303.80;163.30;;;-6.10;99.90;;;;;;6130225;23;20029;-73
2024/01/22 00:02:58;;;;;;;308.05;166.57;;;-6.00;99.90;;;;;;6156894;23;20013;-75
2024/01/22 00:05:25;;;;;;;341.42;189.07;;;-5.90;99.90;;;;;;6166629;23;20655;-76
2024/01/22 00:07:53;;;;;;;388.90;226.57;;;-5.90;1.00;;;;;;6129095;23;20025;-75
2024/01/22 00:10:22;;;;;;;390.38;222.70;;;-6.00;1.00;;;;;;6129413;23;20032;-75
2024/01/22 00:12:49;;;;;;;391.00;218.23;;;-6.00;1.00;;;;;;6129074;23;20020;-74
2024/01/22 00:15:17;;;;;;;414.38;227.70;;;-6.00;1.00;;;;;;6164178;23;20013;-76
2024/01/22 00:17:45;;;;;;;477.77;262.10;;;-6.00;1.00;;;;;;6164788;23;20018;-77
2024/01/22 00:20:12;;;;;;;484.38;269.40;;;-6.00;1.00;;;;;;6128596;23;20431;-72
2024/01/22 00:22:40;;;;;;;562.05;320.98;;;-6.00;1.00;;;;;;6164969;23;20025;-76
2024/01/22 00:25:08;;;;;;;541.60;310.08;;;-6.10;99.90;;;;;;6129383;23;20018;-77
2024/01/22 00:27:39;;;;;;;525.65;296.75;;;-6.20;99.90;;;;;;6146115;23;20468;-75
2024/01/22 00:30:10;;;;;;;507.83;283.15;;;-6.20;99.90;;;;;;6152366;23;20025;-76
2024/01/22 00:32:38;;;;;;;483.73;272.10;;;-6.20;1.00;;;;;;6154607;23;20032;-76
2024/01/22 00:35:06;;;;;;;460.38;259.40;;;-6.30;1.00;;;;;;6152762;23;20010;-76
2024/01/22 00:37:33;;;;;;;464.75;265.27;;;-6.20;1.00;;;;;;6152218;23;20020;-74
2024/01/22 00:40:01;;;;;;;428.80;243.57;;;-6.10;1.00;;;;;;6141341;23;20522;-76
2024/01/22 00:42:28;;;;;;;438.33;241.10;;;-6.20;99.90;;;;;;6131064;23;20028;-75
2024/01/22 00:44:58;;;;;;;467.35;255.30;;;-6.10;99.90;;;;;;6139163;23;20041;-76
2024/01/22 00:47:25;;;;;;;498.33;264.38;;;-6.10;99.90;;;;;;6184025;23;20070;-74
2024/01/22 00:49:53;;;;;;;466.40;240.98;;;-6.10;99.90;;;;;;6168679;23;20445;-74
2024/01/22 00:52:21;;;;;;;419.40;212.18;;;-6.10;99.90;;;;;;6131058;23;20025;-75
2024/01/22 00:54:48;;;;;;;399.80;205.30;;;-6.10;1.00;;;;;;6165491;23;20014;-74
2024/01/22 00:57:16;;;;;;;376.75;192.80;;;-6.10;99.90;;;;;;6133116;23;20018;-77
2024/01/22 00:59:44;;;;;;;375.98;204.18;;;-6.10;1.00;;;;;;6132152;23;20014;-75
2024/01/22 01:02:13;;;;;;;384.85;206.25;;;-6.10;1.00;;;;;;6181224;23;20088;-74
2024/01/22 01:04:42;;;;;;;360.45;193.98;;;-6.10;99.90;;;;;;6139635;23;20018;-74
2024/01/22 01:07:12;;;;;;;385.67;203.82;;;-6.20;96.70;;;;;;6136558;23;20017;-75
2024/01/22 01:09:46;;;;;;;360.70;193.50;;;-6.20;99.90;;;;;;6165546;23;20017;-75
2024/01/22 01:12:13;;;;;;;340.85;172.75;;;-6.20;43.60;;;;;;6130541;23;20021;-74
2024/01/22 01:14:41;;;;;;;338.63;173.63;;;-6.30;1.00;;;;;;6127610;23;20049;-75
2024/01/22 01:17:09;;;;;;;344.00;174.27;;;-6.30;1.00;;;;;;6129256;23;20021;-74
2024/01/22 01:19:39;;;;;;;325.63;164.07;;;-6.30;1.00;;;;;;6164599;23;20017;-74
2024/01/22 01:22:07;;;;;;;366.05;191.52;;;-6.30;1.00;;;;;;6166844;23;20013;-75
2024/01/22 01:24:34;;;;;;;349.10;179.63;;;-6.30;1.00;;;;;;6146054;23;20024;-75
2024/01/22 01:27:02;;;;;;;332.35;179.32;;;-6.20;1.00;;;;;;6141764;23;20014;-76
2024/01/22 01:29:30;;;;;;;334.80;181.88;;;-6.30;1.00;;;;;;6153722;23;20018;-75
2024/01/22 01:31:57;;;;;;;333.73;181.02;;;-6.30;1.00;;;;;;6153504;23;20005;-76
2024/01/22 01:34:25;;;;;;;327.55;170.50;;;-6.50;1.00;;;;;;6134809;23;20635;-76
2024/01/22 01:36:54;;;;;;;293.77;153.93;;;-6.50;1.00;;;;;;6164093;23;20057;-75
2024/01/22 01:39:22;;;;;;;296.55;156.07;;;-6.40;1.00;;;;;;6164925;23;20033;-74
2024/01/22 01:41:50;;;;;;;281.15;144.18;;;-6.40;1.00;;;;;;6130858;23;20021;-74
2024/01/22 01:44:18;;;;;;;260.38;139.23;;;-6.50;1.00;;;;;;6134488;23;20013;-75
2024/01/22 01:46:47;;;;;;;290.17;145.63;;;-6.50;1.00;;;;;;6138943;23;20018;-74
2024/01/22 01:49:14;;;;;;;285.42;149.70;;;-6.50;1.00;;;;;;6125494;23;20032;-74
2024/01/22 01:51:42;;;;;;;283.33;144.93;;;-6.40;1.00;;;;;;6123426;23;20021;-76
2024/01/22 01:54:11;;;;;;;272.48;138.63;;;-6.70;1.00;;;;;;6122736;23;20028;-74
2024/01/22 01:56:39;;;;;;;291.20;153.30;;;-6.70;1.00;;;;;;6123589;23;20530;-73
2024/01/22 01:59:07;;;;;;;329.20;171.45;;;-6.70;1.00;;;;;;6122693;23;20622;-74
2024/01/22 02:01:35;;;;;;;341.45;183.75;;;-6.70;1.00;;;;;;6122344;23;20021;-73
2024/01/22 02:04:02;;;;;;;339.50;186.35;;;-6.70;1.00;;;;;;6121700;23;20022;-74
2024/01/22 02:06:29;;;;;;;322.88;171.50;;;-6.70;33.40;;;;;;6122349;23;20022;-75
2024/01/22 02:08:56;;;;;;;324.55;170.50;;;-6.80;51.90;;;;;;6122244;23;20292;-73
2024/01/22 02:11:26;;;;;;;338.90;175.55;;;-6.70;57.80;;;;;;6122791;23;20080;-75
2024/01/22 02:13:54;;;;;;;315.27;170.10;;;-6.70;11.00;;;;;;6133659;23;20024;-74
2024/01/22 02:16:22;;;;;;;314.48;162.85;;;-6.70;1.00;;;;;;6122662;23;20018;-76
2024/01/22 02:18:49;;;;;;;295.13;155.60;;;-6.60;1.00;;;;;;6122121;23;20018;-75
2024/01/22 02:21:17;;;;;;;305.35;159.25;;;-6.50;1.00;;;;;;6122249;23;20017;-75
2024/01/22 02:23:46;;;;;;;306.08;158.88;;;-6.60;1.00;;;;;;6122067;23;20050;-74
2024/01/22 02:26:13;;;;;;;305.05;158.75;;;-6.60;1.00;;;;;;6122255;23;20397;-75
2024/01/22 02:28:41;;;;;;;320.35;171.75;;;-6.60;1.00;;;;;;6122902;23;20018;-73
2024/01/22 02:31:10;;;;;;;315.02;168.38;;;-6.60;1.00;;;;;;6119602;23;20018;-74
2024/01/22 02:33:37;;;;;;;319.50;169.77;;;-6.50;1.00;;;;;;6127278;23;20443;-75
2024/01/22 02:36:06;;;;;;;298.02;159.65;;;-6.40;1.00;;;;;;6125171;23;20018;-76
2024/01/22 02:38:35;;;;;;;313.10;166.05;;;-6.40;99.90;;;;;;6135450;23;20501;-74
2024/01/22 02:41:04;;;;;;;305.50;161.50;;;-6.50;99.90;;;;;;6134713;23;20069;-74
2024/01/22 02:43:32;;;;;;;299.27;157.60;;;-6.60;99.90;;;;;;6135651;23;20014;-76
2024/01/22 02:46:00;;;;;;;290.92;151.65;;;-6.60;99.90;;;;;;6129530;23;20029;-74
2024/01/22 02:48:27;;;;;;;273.58;145.60;;;-6.70;99.90;;;;;;6152042;23;20025;-75
2024/01/22 02:50:55;;;;;;;264.02;140.50;;;-6.90;1.00;;;;;;6137875;23;20028;-76
2024/01/22 02:53:23;;;;;;;244.93;126.72;;;-6.80;1.00;;;;;;6127534;23;20021;-75
2024/01/22 02:55:50;;;;;;;236.40;122.22;;;-6.70;1.00;;;;;;6128136;23;20021;-73
2024/01/22 02:58:20;;;;;;;223.07;121.13;;;-6.70;1.00;;;;;;6128852;23;20052;-74
2024/01/22 03:00:48;;;;;;;224.43;117.30;;;-6.70;1.00;;;;;;6128614;23;20755;-75
2024/01/22 03:03:16;;;;;;;201.70;109.88;;;-6.70;1.00;;;;;;6165077;23;20018;-74
2024/01/22 03:05:45;;;;;;;214.95;116.63;;;-6.70;1.00;;;;;;6176276;23;20017;-75
2024/01/22 03:08:12;;;;;;;221.02;117.80;;;-6.80;99.90;;;;;;6128380;23;20026;-75
2024/01/22 03:10:40;;;;;;;224.95;122.93;;;-6.90;99.90;;;;;;6127136;23;20020;-74
2024/01/22 03:13:08;;;;;;;229.48;123.53;;;-7.10;99.90;;;;;;6128038;23;20036;-74
2024/01/22 03:15:37;;;;;;;241.02;130.15;;;-7.10;99.90;;;;;;6126960;23;20100;-73
2024/01/22 03:18:05;;;;;;;260.33;138.40;;;-7.10;99.90;;;;;;6127234;23;20108;-74
2024/01/22 03:20:33;;;;;;;229.57;122.55;;;-7.10;1.00;;;;;;6127139;23;20033;-74
2024/01/22 03:23:01;;;;;;;236.07;124.97;;;-7.10;1.00;;;;;;6162887;23;20017;-73
2024/01/22 03:25:28;;;;;;;239.25;125.53;;;-7.20;1.00;;;;;;6127086;23;20022;-73
2024/01/22 03:27:56;;;;;;;231.73;123.72;;;-7.10;1.00;;;;;;6126738;23;20021;-77
2024/01/22 03:30:24;;;;;;;224.50;120.53;;;-7.10;1.00;;;;;;6129122;23;20017;-76
2024/01/22 03:32:53;;;;;;;218.60;117.15;;;-7.10;1.00;;;;;;6187795;23;20014;-76
2024/01/22 03:35:21;;;;;;;203.57;111.43;;;-7.10;1.00;;;;;;6152287;23;20021;-74
2024/01/22 03:37:48;;;;;;;206.65;111.18;;;-7.10;1.00;;;;;;6148499;23;20048;-75
2024/01/22 03:40:16;;;;;;;203.15;107.72;;;-7.10;1.00;;;;;;6148261;23;20069;-76
2024/01/22 03:42:45;;;;;;;206.45;110.22;;;-7.00;1.00;;;;;;6150419;23;20006;-75
2024/01/22 03:45:14;;;;;;;201.13;110.25;;;-7.10;1.00;;;;;;6154477;23;20017;-75
2024/01/22 03:47:41;;;;;;;209.40;111.03;;;-7.00;99.90;;;;;;6148212;23;20021;-76
2024/01/22 03:50:11;;;;;;;206.52;116.20;;;-7.10;99.90;;;;;;6184387;23;20065;-75
2024/01/22 03:52:39;;;;;;;208.25;113.88;;;-7.20;99.90;;;;;;6190495;23;20001;-77
2024/01/22 03:55:08;;;;;;;213.65;119.28;;;-7.30;1.00;;;;;;6153977;23;20028;-76
2024/01/22 03:57:38;;;;;;;224.45;123.45;;;-7.20;1.00;;;;;;6190521;23;20043;-77
2024/01/22 04:00:06;;;;;;;234.05;130.68;;;-7.20;1.00;;;;;;6154971;23;19998;-75
2024/01/22 04:02:34;;;;;;;227.70;125.32;;;-7.10;99.90;;;;;;6153994;23;20002;-74
2024/01/22 04:05:02;;;;;;;232.15;128.13;;;-7.10;99.90;;;;;;6149316;23;20014;-75
2024/01/22 04:07:31;;;;;;;226.60;124.32;;;-7.20;99.90;;;;;;6139409;23;20021;-76
2024/01/22 04:09:59;;;;;;;209.52;112.78;;;-7.30;1.00;;;;;;6129964;23;20026;-73
2024/01/22 04:12:27;;;;;;;210.88;114.43;;;-7.30;1.00;;;;;;6130831;23;20024;-76
2024/01/22 04:14:56;;;;;;;214.60;116.93;;;-7.40;1.00;;;;;;6134286;23;20052;-75
2024/01/22 04:17:24;;;;;;;216.35;117.43;;;-7.40;1.00;;;;;;6129110;23;20017;-76
2024/01/22 04:19:51;;;;;;;170.27;94.07;;;-7.30;1.00;;;;;;6129505;23;20087;-75
2024/01/22 04:22:19;;;;;;;156.70;89.80;;;-7.30;1.00;;;;;;6170905;23;20028;-74
2024/01/22 04:24:48;;;;;;;153.95;85.18;;;-7.30;1.00;;;;;;6173572;23;20026;-75
2024/01/22 04:27:16;;;;;;;183.82;99.85;;;-7.20;1.00;;;;;;6137124;23;20177;-76
2024/01/22 04:29:43;;;;;;;188.80;107.88;;;-7.20;1.00;;;;;;6139297;23;20025;-77
2024/01/22 04:32:11;;;;;;;218.07;118.45;;;-7.20;1.00;;;;;;6178078;23;20001;-75
2024/01/22 04:34:40;;;;;;;220.65;117.20;;;-7.10;1.00;;;;;;6138323;23;20032;-74
2024/01/22 04:37:08;;;;;;;213.23;119.22;;;-7.10;99.90;;;;;;6131984;23;20308;-75
2024/01/22 04:39:36;;;;;;;247.27;133.98;;;-7.30;99.90;;;;;;6132994;23;20763;-76
2024/01/22 04:42:05;;;;;;;243.48;133.25;;;-7.40;99.90;;;;;;6168937;23;20035;-75
2024/01/22 04:44:33;;;;;;;249.40;134.05;;;-7.30;99.90;;;;;;6134631;23;20022;-76
2024/01/22 04:47:01;;;;;;;226.05;124.07;;;-7.40;99.90;;;;;;6142601;23;20017;-74
2024/01/22 04:49:29;;;;;;;190.63;107.85;;;-7.40;99.90;;;;;;6133829;23;20110;-75
2024/01/22 04:51:58;;;;;;;190.68;108.35;;;-7.40;99.90;;;;;;6131605;23;20042;-75
2024/01/22 04:54:25;;;;;;;176.93;97.95;;;-7.40;1.00;;;;;;6125140;23;20032;-75
2024/01/22 04:56:54;;;;;;;181.73;100.47;;;-7.40;99.90;;;;;;6122973;23;20101;-74
2024/01/22 04:59:23;;;;;;;175.20;95.22;;;-7.30;99.90;;;;;;6135418;23;20073;-75
2024/01/22 05:01:50;;;;;;;172.00;93.85;;;-7.40;99.90;;;;;;6123652;23;20410;-75
2024/01/22 05:04:18;;;;;;;165.77;95.07;;;-7.40;99.90;;;;;;6122940;23;20366;-76
2024/01/22 05:06:46;;;;;;;165.77;91.45;;;-7.30;1.00;;;;;;6123722;23;20042;-76
2024/01/22 05:09:15;;;;;;;186.90;98.28;;;-7.30;99.90;;;;;;6123648;23;20069;-75
2024/01/22 05:11:42;;;;;;;176.75;100.10;;;-7.30;99.90;;;;;;6124496;23;20106;-77
2024/01/22 05:14:10;;;;;;;190.07;103.90;;;-7.30;99.90;;;;;;6127706;23;20022;-74
2024/01/22 05:16:39;;;;;;;196.38;112.35;;;-7.20;99.90;;;;;;6127139;23;20022;-74
2024/01/22 05:19:07;;;;;;;191.85;109.43;;;-7.20;99.90;;;;;;6125032;23;20026;-74
2024/01/22 05:21:34;;;;;;;198.05;113.53;;;-7.20;99.90;;;;;;6124389;23;20040;-75
2024/01/22 05:24:03;;;;;;;186.70;108.63;;;-7.20;99.90;;;;;;6124761;23;20097;-75
2024/01/22 05:26:31;;;;;;;200.98;113.53;;;-7.30;1.00;;;;;;6132392;23;20030;-75
2024/01/22 05:28:59;;;;;;;209.48;116.38;;;-7.50;99.90;;;;;;6154956;23;20022;-76
2024/01/22 05:31:26;;;;;;;199.95;113.07;;;-7.60;99.90;;;;;;6153649;23;20013;-74
2024/01/22 05:33:55;;;;;;;193.48;110.13;;;-7.60;99.90;;;;;;6132139;23;20025;-74
2024/01/22 05:36:23;;;;;;;200.60;110.13;;;-7.70;1.00;;;;;;6123297;23;20060;-75
2024/01/22 05:38:51;;;;;;;199.18;110.15;;;-7.80;1.00;;;;;;6136100;23;20018;-74
2024/01/22 05:41:19;;;;;;;195.13;108.45;;;-7.80;1.00;;;;;;6124329;23;20046;-75
2024/01/22 05:43:47;;;;;;;227.90;121.65;;;-7.70;1.00;;;;;;6137222;23;20312;-75
2024/01/22 05:46:14;;;;;;;259.77;137.35;;;-7.70;1.00;;;;;;6139049;23;20370;-77
2024/01/22 05:48:42;;;;;;;243.70;134.20;;;-7.70;1.00;;;;;;6141906;23;20093;-75
2024/01/22 05:51:11;;;;;;;270.30;146.32;;;-7.60;1.00;;;;;;6128360;23;20060;-75
2024/01/22 05:53:40;;;;;;;320.20;168.73;;;-7.50;1.00;;;;;;6127560;23;20025;-75
2024/01/22 05:56:08;;;;;;;294.60;158.73;;;-7.40;1.00;;;;;;6129152;23;20339;-75
2024/01/22 05:58:36;;;;;;;279.73;154.95;;;-7.50;1.00;;;;;;6129950;23;20371;-77
2024/01/22 06:01:03;;;;;;;271.17;147.57;;;-7.50;1.00;;;;;;6166804;23;20013;-74
2024/01/22 06:03:31;;;;;;;272.80;148.00;;;-7.40;1.00;;;;;;6138088;23;20028;-74
2024/01/22 06:05:58;;;;;;;284.38;151.25;;;-7.40;99.90;;;;;;6174019;23;20025;-78
2024/01/22 06:08:27;;;;;;;286.67;155.27;;;-7.30;99.90;;;;;;6136621;23;20022;-78
2024/01/22 06:10:55;;;;;;;276.98;147.20;;;-7.50;99.90;;;;;;6129692;23;20014;-78
2024/01/22 06:13:22;;;;;;;276.23;146.00;;;-7.50;99.90;;;;;;6128561;23;20052;-74
2024/01/22 06:15:50;;;;;;;286.95;157.27;;;-7.40;99.90;;;;;;6131362;23;20112;-74
2024/01/22 06:18:19;;;;;;;267.83;146.00;;;-7.50;99.90;;;;;;6134682;23;20022;-74
2024/01/22 06:20:49;;;;;;;286.25;156.82;;;-7.40;99.90;;;;;;6135542;23;20049;-74
2024/01/22 06:23:17;;;;;;;246.43;135.80;;;-7.30;99.90;;;;;;6172793;23;20025;-77
2024/01/22 06:25:46;;;;;;;229.73;127.72;;;-7.40;99.90;;;;;;6128896;23;20060;-75
2024/01/22 06:28:13;;;;;;;249.98;138.55;;;-7.40;99.90;;;;;;6136481;23;20075;-75
2024/01/22 06:30:41;;;;;;;268.52;149.95;;;-7.30;99.90;;;;;;6132005;23;20322;-73
2024/01/22 06:33:09;;;;;;;287.02;158.15;;;-7.20;99.90;;;;;;6135193;23;20035;-74
2024/01/22 06:35:37;;;;;;;286.88;155.55;;;-7.30;46.90;;;;;;6135851;23;20032;-76
2024/01/22 06:38:05;;;;;;;287.90;158.73;;;-7.30;56.20;;;;;;6130383;23;20028;-76
2024/01/22 06:40:34;;;;;;;284.55;158.73;;;-7.30;29.40;;;;;;6128952;23;20022;-75
2024/01/22 06:43:03;;;;;;;286.92;154.50;;;-7.20;63.80;;;;;;6163971;23;20514;-74
2024/01/22 06:45:30;;;;;;;300.88;165.00;;;-7.40;1.00;;;;;;6128067;23;20025;-74
2024/01/22 06:47:58;;;;;;;285.25;154.23;;;-7.40;99.90;;;;;;6130830;23;20045;-74
2024/01/22 06:50:26;;;;;;;274.55;150.82;;;-7.50;99.70;;;;;;6124799;23;20077;-75
2024/01/22 06:52:53;;;;;;;271.70;148.23;;;-7.40;99.90;;;;;;6138167;23;20339;-77
2024/01/22 06:55:21;;;;;;;277.88;150.02;;;-7.30;99.90;;;;;;6132199;23;20455;-76
2024/01/22 06:57:49;;;;;;;277.58;147.65;;;-7.20;99.90;;;;;;6136148;23;20081;-76
2024/01/22 07:00:19;;;;;;;292.92;155.23;;;-7.10;99.90;;;;;;6147039;23;20045;-76
2024/01/22 07:02:48;;;;;;;318.85;178.15;;;-6.90;1.00;;;;;;6129758;23;20050;-76
2024/01/22 07:05:16;;;;;;;310.98;175.77;;;-6.90;1.00;;;;;;6130142;23;20615;-77
2024/01/22 07:07:44;;;;;;;323.38;187.38;;;-6.80;1.00;;;;;;6138148;23;20022;-76
2024/01/22 07:10:13;;;;;;;304.42;171.60;;;-6.80;1.00;;;;;;6127294;23;20045;-76
2024/01/22 07:12:43;;;;;;;299.73;171.77;;;-6.50;1.00;;;;;;6126981;23;20037;-75
2024/01/22 07:15:12;;;;;;;298.98;164.88;;;-6.30;1.00;;;;;;6124755;23;20439;-75
2024/01/22 07:17:41;;;;;;;302.85;170.07;;;-6.30;1.00;;;;;;6140277;23;20125;-75
2024/01/22 07:20:13;;;;;;;307.95;175.38;;;-6.20;1.00;;;;;;6134366;23;20078;-75
2024/01/22 07:22:42;;;;;;;282.42;161.57;;;-6.00;1.00;;;;;;6127859;23;20018;-76
2024/01/22 07:25:11;;;;;;;256.60;142.45;;;-6.00;1.00;;;;;;6124977;23;20022;-75
2024/01/22 07:27:39;;;;;;;294.65;165.40;;;-5.60;1.00;;;;;;6124435;23;20018;-76
2024/01/22 07:30:09;;;;;;;290.95;163.18;;;-5.50;99.90;;;;;;6123971;23;20020;-76
2024/01/22 07:32:37;;;;;;;303.15;169.93;;;-5.40;99.90;;;;;;6134617;23;20022;-75
2024/01/22 07:35:09;;;;;;;303.33;170.35;;;-5.20;99.90;;;;;;6146653;23;20018;-74
2024/01/22 07:37:37;;;;;;;325.10;176.70;;;-4.80;99.90;;;;;;6147451;23;20009;-74
2024/01/22 07:40:09;;;;;;;318.55;181.57;;;-4.90;99.90;;;;;;6147514;23;20018;-74
2024/01/22 07:42:37;;;;;;;303.80;171.82;;;-4.80;99.90;;;;;;6145587;23;20017;-75
2024/01/22 07:45:06;;;;;;;293.13;166.77;;;-4.70;99.90;;;;;;6144599;23;20018;-75
2024/01/22 07:47:34;;;;;;;308.48;171.10;;;-4.70;99.90;;;;;;6127334;23;20018;-74
2024/01/22 07:50:01;;;;;;;311.02;176.77;;;-4.70;99.90;;;;;;6122293;23;20021;-75
2024/01/22 07:52:31;;;;;;;302.27;168.93;;;-4.60;99.90;;;;;;6123553;23;20501;-75
2024/01/22 07:54:59;;;;;;;292.00;166.05;;;-4.40;99.90;;;;;;6122858;23;20110;-74
2024/01/22 07:57:26;;;;;;;306.00;172.70;;;-4.20;99.90;;;;;;6126004;23;20033;-77
2024/01/22 07:59:54;;;;;;;301.27;167.05;;;-4.00;79.00;;;;;;6125003;23;20101;-75
2024/01/22 08:02:22;;;;;;;287.45;159.85;;;-4.00;17.70;;;;;;6135762;23;20018;-76
2024/01/22 08:04:50;;;;;;;274.42;151.50;;;-4.00;50.00;;;;;;6135969;23;20451;-76
2024/01/22 08:07:19;;;;;;;277.02;152.57;;;-3.90;99.90;;;;;;6135729;23;20078;-77
2024/01/22 08:09:49;;;;;;;280.30;151.77;;;-3.60;66.10;;;;;;6135261;23;20021;-75
2024/01/22 08:12:17;;;;;;;269.17;146.98;;;-3.50;1.00;;;;;;6134611;23;20014;-74
2024/01/22 08:14:45;;;;;;;269.67;147.60;;;-3.30;18.20;;;;;;6134834;23;20018;-75
2024/01/22 08:17:22;;;;;;;270.42;146.75;;;-3.20;1.00;;;;;;6123516;23;20021;-75
2024/01/22 08:19:50;;;;;;;269.08;150.80;;;-3.20;11.00;;;;;;6122527;23;20018;-77
2024/01/22 08:22:25;;;;;;;276.10;150.60;;;-3.20;20.70;;;;;;6124041;23;20073;-75
2024/01/22 08:24:58;;;;;;;251.80;139.98;;;-3.30;30.10;;;;;;6123851;23;20026;-75
2024/01/22 08:27:26;;;;;;;257.45;145.45;;;-3.30;83.90;;;;;;6134548;23;20018;-77
2024/01/22 08:29:54;;;;;;;255.15;137.73;;;-3.30;99.90;;;;;;6123127;23;20022;-74
2024/01/22 08:32:23;;;;;;;267.98;146.65;;;-3.10;99.90;;;;;;6122650;23;20401;-75
2024/01/22 08:34:55;;;;;;;245.55;141.63;;;-3.10;99.90;;;;;;6133483;23;20021;-75
2024/01/22 08:37:23;;;;;;;249.07;139.32;;;-3.00;99.90;;;;;;6134596;23;20014;-74
2024/01/22 08:39:51;;;;;;;255.45;143.32;;;-2.70;99.90;;;;;;6134489;23;20021;-75
2024/01/22 08:42:21;;;;;;;259.13;141.57;;;-2.50;99.90;;;;;;6123609;23;20022;-75
2024/01/22 08:44:47;;;;;;;267.38;154.13;;;-2.40;46.20;;;;;;6133975;23;20040;-77
2024/01/22 08:47:15;;;;;;;256.85;145.30;;;-2.40;99.90;;;;;;6134284;23;20526;-74
2024/01/22 08:49:42;;;;;;;183.77;107.20;;;-2.40;99.90;;;;;;6122908;23;20774;-74
2024/01/22 08:52:10;;;;;;;162.20;93.50;;;-2.20;99.90;;;;;;6135822;23;20014;-76
2024/01/22 08:54:37;;;;;;;137.98;82.03;;;-2.10;99.90;;;;;;6124598;23;20045;-76
2024/01/22 08:57:05;;;;;;;157.50;92.22;;;-2.00;99.90;;;;;;6147640;23;20082;-76
2024/01/22 08:59:34;;;;;;;173.75;100.22;;;-2.00;99.90;;;;;;6136122;23;20018;-74
2024/01/22 09:02:02;;;;;;;153.93;92.10;;;-1.90;99.90;;;;;;6143722;23;20046;-76
2024/01/22 09:04:31;;;;;;;171.32;99.18;;;-1.80;99.90;;;;;;6134855;23;20081;-75
2024/01/22 09:07:02;;;;;;;167.52;96.70;;;-1.60;99.90;;;;;;6123701;23;20044;-75
2024/01/22 09:09:29;;;;;;;165.05;94.93;;;-1.50;99.90;;;;;;6123684;23;20069;-75
2024/01/22 09:12:00;;;;;;;160.35;92.50;;;-1.40;99.90;;;;;;6134488;23;20010;-74
2024/01/22 09:14:27;;;;;;;172.43;103.15;;;-1.30;99.90;;;;;;6123072;23;20021;-74
2024/01/22 09:16:57;;;;;;;162.43;97.82;;;-1.20;99.90;;;;;;6134580;23;20466;-75
2024/01/22 09:19:24;;;;;;;176.70;106.07;;;-1.00;99.90;;;;;;6123332;23;20022;-75
2024/01/22 09:21:52;;;;;;;178.05;107.20;;;-0.90;99.90;;;;;;6123223;23;20018;-75
2024/01/22 09:24:22;;;;;;;177.98;103.68;;;-0.70;99.90;;;;;;6134379;23;20037;-73
2024/01/22 09:26:50;;;;;;;192.00;113.40;;;-0.70;99.90;;;;;;6122383;23;20025;-74
2024/01/22 09:29:19;;;;;;;171.30;102.55;;;-0.60;99.90;;;;;;6126019;23;20073;-74
2024/01/22 09:31:47;;;;;;;180.95;105.18;;;-0.50;99.90;;;;;;6126743;23;20021;-75
2024/01/22 09:34:15;;;;;;;189.43;114.95;;;-0.30;99.90;;;;;;6125309;23;20018;-75
2024/01/22 09:36:43;;;;;;;185.82;107.32;;;-0.20;24.80;;;;;;6125623;23;20108;-76
2024/01/22 09:39:13;;;;;;;161.38;93.85;;;-0.20;90.10;;;;;;6123970;23;20049;-77
2024/01/22 09:41:41;;;;;;;152.43;89.63;;;0.00;95.00;;;;;;6125885;23;20018;-77
2024/01/22 09:44:09;;;;;;;160.75;89.38;;;0.20;92.40;;;;;;6139028;23;20024;-76
2024/01/22 09:46:37;;;;;;;148.38;86.07;;;0.40;50.00;;;;;;6145117;23;20021;-74
2024/01/22 09:49:05;;;;;;;144.50;85.38;;;0.50;1.00;;;;;;6146688;23;20033;-76
2024/01/22 09:51:36;;;;;;;134.23;76.90;;;0.70;1.00;;;;;;6163889;23;20068;-74
2024/01/22 09:54:07;;;;;;;128.90;70.50;;;0.90;1.00;;;;;;6163908;23;20014;-74
2024/01/22 09:56:37;;;;;;;125.22;66.32;;;1.00;1.00;;;;;;6130672;23;20354;-77
2024/01/22 09:59:14;;;;;;;114.43;60.50;;;1.10;1.00;;;;;;6166040;23;20048;-75
2024/01/22 10:01:43;;;;;;;103.72;54.78;;;1.00;1.00;;;;;;6129682;23;20063;-77
2024/01/22 10:04:18;;;;;;;91.68;46.88;;;1.10;1.00;;;;;;6128999;23;20602;-74
2024/01/22 10:06:48;;;;;;;90.57;47.97;;;1.10;1.00;;;;;;6128812;23;20018;-77
2024/01/22 10:09:17;;;;;;;103.70;49.47;;;1.20;1.00;;;;;;6164647;23;20017;-75
2024/01/22 10:11:45;;;;;;;104.13;53.90;;;1.30;1.00;;;;;;6128507;23;20088;-74
2024/01/22 10:14:12;;;;;;;96.07;52.67;;;1.50;1.00;;;;;;6127920;23;20107;-75
2024/01/22 10:16:40;;;;;;;98.65;53.88;;;1.70;1.00;;;;;;6127076;23;20353;-75
2024/01/22 10:19:10;;;;;;;100.25;46.15;;;1.90;1.00;;;;;;6131403;23;20034;-75
2024/01/22 10:21:43;;;;;;;58.60;31.67;;;2.00;1.00;;;;;;6165508;23;20029;-75
2024/01/22 10:24:12;;;;;;;64.50;36.03;;;2.00;1.00;;;;;;6168908;23;20014;-75
2024/01/22 10:26:39;;;;;;;69.93;36.53;;;2.20;1.00;;;;;;6145263;23;20048;-73
2024/01/22 10:29:17;;;;;;;67.22;35.83;;;2.30;1.00;;;;;;6140890;23;20463;-75
2024/01/22 10:31:55;;;;;;;82.00;42.65;;;2.50;1.00;;;;;;6172960;23;20446;-75
2024/01/22 10:34:24;;;;;;;80.68;42.53;;;2.50;1.00;;;;;;6134509;23;20025;-76
2024/01/22 10:37:07;;;;;;;82.72;44.67;;;2.60;1.00;;;;;;6177967;23;20014;-75
2024/01/22 10:39:36;;;;;;;100.00;52.85;;;2.80;1.00;;;;;;6177212;23;20017;-75
2024/01/22 10:42:12;;;;;;;128.63;64.00;;;2.90;1.00;;;;;;6179163;23;20021;-75
2024/01/22 10:44:41;;;;;;;131.90;71.13;;;3.00;1.00;;;;;;6136353;23;20025;-77
2024/01/22 10:47:09;;;;;;;150.40;76.75;;;3.10;1.00;;;;;;6131832;23;20088;-76
2024/01/22 10:49:37;;;;;;;157.85;82.97;;;3.20;1.00;;;;;;6131375;23;20343;-74
2024/01/22 10:52:06;;;;;;;159.80;86.75;;;3.30;1.00;;;;;;6128454;23;20018;-75
2024/01/22 10:54:37;;;;;;;167.88;90.22;;;3.40;1.00;;;;;;6128857;23;20033;-75
2024/01/22 10:57:06;;;;;;;177.88;93.30;;;3.50;1.00;;;;;;6141651;23;20025;-75
2024/01/22 10:59:38;;;;;;;184.38;99.22;;;3.60;1.00;;;;;;6147200;23;20094;-75
2024/01/22 11:02:07;;;;;;;190.50;106.32;;;3.70;1.00;;;;;;6125115;23;20018;-74
2024/01/22 11:04:39;;;;;;;197.38;106.28;;;3.80;1.00;;;;;;6136367;23;20073;-78
2024/01/22 11:07:08;;;;;;;201.63;111.18;;;3.80;1.00;;;;;;6136469;23;20022;-74
2024/01/22 11:09:39;;;;;;;200.38;110.47;;;3.80;1.00;;;;;;6126418;23;20037;-74
2024/01/22 11:12:10;;;;;;;200.02;110.15;;;3.80;1.00;;;;;;6140829;23;20018;-77
2024/01/22 11:14:39;;;;;;;209.15;113.30;;;3.80;1.00;;;;;;6136486;23;20037;-75
2024/01/22 11:17:08;;;;;;;213.30;114.88;;;3.90;1.00;;;;;;6125144;23;20025;-73
2024/01/22 11:19:37;;;;;;;213.15;115.15;;;4.00;1.00;;;;;;6125516;23;20038;-74
2024/01/22 11:22:14;;;;;;;210.27;116.82;;;4.10;1.00;;;;;;6140754;23;20014;-75
2024/01/22 11:24:43;;;;;;;196.80;109.10;;;4.20;1.00;;;;;;6143936;23;20010;-75
2024/01/22 11:27:12;;;;;;;193.82;112.30;;;4.30;1.00;;;;;;6133599;23;20018;-75
2024/01/22 11:29:39;;;;;;;199.73;106.03;;;4.30;1.00;;;;;;6133215;23;20093;-74
2024/01/22 11:32:27;;;;;;;179.20;97.80;;;4.40;1.00;;;;;;6146961;23;20422;-76
2024/01/22 11:34:58;;;;;;;172.30;94.43;;;4.50;1.00;;;;;;6130481;23;20105;-75
2024/01/22 11:37:37;;;;;;;163.27;90.63;;;4.50;1.00;;;;;;6134138;23;20048;-74
2024/01/22 11:40:11;;;;;;;175.63;93.47;;;4.50;1.00;;;;;;6138188;23;20101;-75
2024/01/22 11:42:41;;;;;;;171.57;96.38;;;4.50;1.00;;;;;;6126415;23;20037;-74
2024/01/22 11:45:12;;;;;;;176.88;98.60;;;4.60;1.00;;;;;;6135954;23;20238;-73
2024/01/22 11:47:41;;;;;;;190.20;101.47;;;4.60;1.00;;;;;;6137392;23;20078;-76
2024/01/22 11:50:10;;;;;;;186.35;101.75;;;4.60;1.00;;;;;;6161347;23;20021;-72
2024/01/22 11:52:38;;;;;;;174.73;101.43;;;4.60;1.00;;;;;;6127303;23;20022;-74
2024/01/22 11:55:08;;;;;;;177.98;100.07;;;4.60;1.00;;;;;;6126569;23;20489;-74
2024/01/22 11:57:37;;;;;;;187.38;102.10;;;4.70;1.00;;;;;;6164395;23;20021;-76
2024/01/22 12:00:10;;;;;;;167.73;95.35;;;4.70;1.00;;;;;;6127319;23;20095;-76
2024/01/22 12:02:41;;;;;;;175.82;99.28;;;4.70;1.00;;;;;;6162954;23;20014;-74
2024/01/22 12:05:12;;;;;;;176.80;96.80;;;4.70;1.00;;;;;;6128906;23;20021;-74
2024/01/22 12:07:40;;;;;;;169.43;95.75;;;4.80;1.00;;;;;;6165181;23;20529;-74
2024/01/22 12:10:20;;;;;;;163.85;95.25;;;4.80;1.00;;;;;;6167771;23;20017;-75
2024/01/22 12:12:52;;;;;;;176.40;100.32;;;4.90;1.00;;;;;;6170918;23;20088;-76
2024/01/22 12:15:21;;;;;;;184.98;105.60;;;4.90;1.00;;;;;;6144047;23;20025;-75
2024/01/22 12:17:49;;;;;;;173.45;100.82;;;5.00;1.00;;;;;;6163331;23;20017;-73
2024/01/22 12:20:17;;;;;;;178.02;100.38;;;5.00;1.00;;;;;;6164790;23;20452;-76
2024/01/22 12:22:45;;;;;;;179.13;98.63;;;5.10;1.00;;;;;;6167135;23;20020;-75
2024/01/22 12:25:14;;;;;;;172.52;97.70;;;5.00;1.00;;;;;;6167111;23;20328;-77